sensor_id;sensor_type;location;lat;lon;timestamp;temperature;humidity
10678;DHT22;5387;48.722;9.110;2023-02-01T00:01:50;2.50;99.90
10678;DHT22;5387;48.722;9.110;2023-02-01T00:04:16;2.50;99.90
10678;DHT22;5387;48.722;9.110;2023-02-01T00:06:43;2.50;99.90
10678;DHT22;5387;48.722;9.110;2023-02-01T00:09:10;2.40;99.90
10678;DHT22;5387;48.722;9.110;2023-02-01T00:11:37;2.40;99.90
10678;DHT22;5387;48.722;9.110;2023-02-01T00:14:03;2.40;99.90
10678;DHT22;5387;48.722;9.110;2023-02-01T00:16:31;2.40;99.90
10678;DHT22;5387;48.722;9.110;2023-02-01T00:19:01;2.40;99.90
10678;DHT22;5387;48.722;9.110;2023-02-01T00:21:28;2.40;99.90
10678;DHT22;5387;48.722;9.110;2023-02-01T00:23:55;2.40;99.90
10678;DHT22;5387;48.722;9.110;2023-02-01T00:26:26;2.40;99.90
10678;DHT22;5387;48.722;9.110;2023-02-01T00:28:54;2.40;99.90
10678;DHT22;5387;48.722;9.110;2023-02-01T00:31:21;2.40;99.90
10678;DHT22;5387;48.722;9.110;2023-02-01T00:33:48;2.50;99.90
10678;DHT22;5387;48.722;9.110;2023-02-01T00:36:16;2.50;99.90
10678;DHT22;5387;48.722;9.110;2023-02-01T00:38:43;2.50;99.90
10678;DHT22;5387;48.722;9.110;2023-02-01T00:41:12;2.60;99.90
10678;DHT22;5387;48.722;9.110;2023-02-01T00:43:39;2.60;99.90
10678;DHT22;5387;48.722;9.110;2023-02-01T00:46:06;2.50;99.90
10678;DHT22;5387;48.722;9.110;2023-02-01T00:48:33;2.50;99.90
10678;DHT22;5387;48.722;9.110;2023-02-01T00:51:00;2.60;99.90
10678;DHT22;5387;48.722;9.110;2023-02-01T00:53:29;2.60;99.90
10678;DHT22;5387;48.722;9.110;2023-02-01T00:55:56;2.60;99.90
10678;DHT22;5387;48.722;9.110;2023-02-01T00:58:24;2.60;99.90
10678;DHT22;5387;48.722;9.110;2023-02-01T01:01:00;2.60;99.90
10678;DHT22;5387;48.722;9.110;2023-02-01T01:03:27;2.60;99.90
10678;DHT22;5387;48.722;9.110;2023-02-01T01:05:57;2.50;99.90
10678;DHT22;5387;48.722;9.110;2023-02-01T01:08:24;2.60;99.90
10678;DHT22;5387;48.722;9.110;2023-02-01T01:10:52;2.60;99.90
10678;DHT22;5387;48.722;9.110;2023-02-01T01:13:19;2.60;99.90
10678;DHT22;5387;48.722;9.110;2023-02-01T01:15:46;2.60;99.90
10678;DHT22;5387;48.722;9.110;2023-02-01T01:18:13;2.60;99.90
10678;DHT22;5387;48.722;9.110;2023-02-01T01:20:40;2.60;99.90
10678;DHT22;5387;48.722;9.110;2023-02-01T01:23:08;2.60;99.90
10678;DHT22;5387;48.722;9.110;2023-02-01T01:25:37;2.60;99.90
10678;DHT22;5387;48.722;9.110;2023-02-01T01:28:06;2.60;99.90
10678;DHT22;5387;48.722;9.110;2023-02-01T01:30:33;2.60;99.90
10678;DHT22;5387;48.722;9.110;2023-02-01T01:33:00;2.60;99.90
10678;DHT22;5387;48.722;9.110;2023-02-01T01:35:29;2.60;99.90
10678;DHT22;5387;48.722;9.110;2023-02-01T01:37:57;2.80;99.90
10678;DHT22;5387;48.722;9.110;2023-02-01T01:40:24;2.70;99.90
10678;DHT22;5387;48.722;9.110;2023-02-01T01:42:51;2.70;99.90
10678;DHT22;5387;48.722;9.110;2023-02-01T01:45:24;2.80;99.90
10678;DHT22;5387;48.722;9.110;2023-02-01T01:47:53;2.70;99.90
10678;DHT22;5387;48.722;9.110;2023-02-01T01:50:24;2.70;99.90
10678;DHT22;5387;48.722;9.110;2023-02-01T01:52:52;2.70;99.90
10678;DHT22;5387;48.722;9.110;2023-02-01T01:55:22;2.70;99.90
10678;DHT22;5387;48.722;9.110;2023-02-01T01:57:53;2.70;99.90
10678;DHT22;5387;48.722;9.110;2023-02-01T02:00:22;2.80;99.90
10678;DHT22;5387;48.722;9.110;2023-02-01T02:02:53;2.70;99.90
10678;DHT22;5387;48.722;9.110;2023-02-01T02:05:21;2.70;99.90
10678;DHT22;5387;48.722;9.110;2023-02-01T02:07:49;2.70;99.90
10678;DHT22;5387;48.722;9.110;2023-02-01T02:10:17;2.60;99.90
10678;DHT22;5387;48.722;9.110;2023-02-01T02:12:45;2.70;99.90
10678;DHT22;5387;48.722;9.110;2023-02-01T02:15:15;2.70;99.90
10678;DHT22;5387;48.722;9.110;2023-02-01T02:17:49;2.80;99.90
10678;DHT22;5387;48.722;9.110;2023-02-01T02:20:39;2.70;99.90
10678;DHT22;5387;48.722;9.110;2023-02-01T02:24:02;2.80;99.90
10678;DHT22;5387;48.722;9.110;2023-02-01T02:29:54;2.80;99.90
10678;DHT22;5387;48.722;9.110;2023-02-01T02:35:45;2.80;99.90
10678;DHT22;5387;48.722;9.110;2023-02-01T02:38:26;2.90;99.90
10678;DHT22;5387;48.722;9.110;2023-02-01T02:41:05;2.90;99.90
10678;DHT22;5387;48.722;9.110;2023-02-01T02:43:40;2.90;99.90
10678;DHT22;5387;48.722;9.110;2023-02-01T02:46:30;3.00;99.90
10678;DHT22;5387;48.722;9.110;2023-02-01T02:49:20;2.90;99.90
10678;DHT22;5387;48.722;9.110;2023-02-01T02:51:54;3.00;99.90
10678;DHT22;5387;48.722;9.110;2023-02-01T02:54:43;2.80;99.90
10678;DHT22;5387;48.722;9.110;2023-02-01T02:57:16;2.90;99.90
10678;DHT22;5387;48.722;9.110;2023-02-01T03:00:04;2.90;99.90
10678;DHT22;5387;48.722;9.110;2023-02-01T03:02:49;2.80;99.90
10678;DHT22;5387;48.722;9.110;2023-02-01T03:05:34;2.80;99.90
10678;DHT22;5387;48.722;9.110;2023-02-01T03:08:10;2.80;99.90
10678;DHT22;5387;48.722;9.110;2023-02-01T03:10:44;2.70;99.90
10678;DHT22;5387;48.722;9.110;2023-02-01T03:13:16;2.70;99.90
10678;DHT22;5387;48.722;9.110;2023-02-01T03:15:51;2.70;99.90
10678;DHT22;5387;48.722;9.110;2023-02-01T03:18:26;2.80;99.90
10678;DHT22;5387;48.722;9.110;2023-02-01T03:20:55;2.80;99.90
10678;DHT22;5387;48.722;9.110;2023-02-01T03:23:28;2.80;99.90
10678;DHT22;5387;48.722;9.110;2023-02-01T03:25:58;2.90;99.90
10678;DHT22;5387;48.722;9.110;2023-02-01T03:28:28;2.90;99.90
10678;DHT22;5387;48.722;9.110;2023-02-01T03:30:56;2.90;99.90
10678;DHT22;5387;48.722;9.110;2023-02-01T03:33:25;2.90;99.90
10678;DHT22;5387;48.722;9.110;2023-02-01T03:35:58;2.90;99.90
10678;DHT22;5387;48.722;9.110;2023-02-01T03:38:31;2.80;99.90
10678;DHT22;5387;48.722;9.110;2023-02-01T03:41:04;2.90;99.90
10678;DHT22;5387;48.722;9.110;2023-02-01T03:43:42;2.80;99.90
10678;DHT22;5387;48.722;9.110;2023-02-01T03:46:15;2.70;99.90
10678;DHT22;5387;48.722;9.110;2023-02-01T03:48:44;2.70;99.90
10678;DHT22;5387;48.722;9.110;2023-02-01T03:51:11;2.60;99.90
10678;DHT22;5387;48.722;9.110;2023-02-01T03:53:41;2.70;99.90
10678;DHT22;5387;48.722;9.110;2023-02-01T03:56:08;2.70;99.90
10678;DHT22;5387;48.722;9.110;2023-02-01T03:58:37;2.70;99.90
10678;DHT22;5387;48.722;9.110;2023-02-01T04:01:04;2.70;99.90
10678;DHT22;5387;48.722;9.110;2023-02-01T04:03:31;2.70;99.90
10678;DHT22;5387;48.722;9.110;2023-02-01T04:05:57;2.60;99.90
10678;DHT22;5387;48.722;9.110;2023-02-01T04:08:24;2.80;99.90
10678;DHT22;5387;48.722;9.110;2023-02-01T04:10:52;2.90;99.90
10678;DHT22;5387;48.722;9.110;2023-02-01T04:13:19;2.90;99.90
10678;DHT22;5387;48.722;9.110;2023-02-01T04:15:46;2.90;99.90
10678;DHT22;5387;48.722;9.110;2023-02-01T04:18:15;2.90;99.90
10678;DHT22;5387;48.722;9.110;2023-02-01T04:20:43;2.90;99.90
10678;DHT22;5387;48.722;9.110;2023-02-01T04:23:10;2.90;99.90
10678;DHT22;5387;48.722;9.110;2023-02-01T04:25:37;3.00;99.90
10678;DHT22;5387;48.722;9.110;2023-02-01T04:28:05;3.10;99.90
10678;DHT22;5387;48.722;9.110;2023-02-01T04:30:32;3.10;99.90
10678;DHT22;5387;48.722;9.110;2023-02-01T04:32:59;3.20;99.90
10678;DHT22;5387;48.722;9.110;2023-02-01T04:35:26;3.20;99.90
10678;DHT22;5387;48.722;9.110;2023-02-01T04:37:52;3.20;99.90
10678;DHT22;5387;48.722;9.110;2023-02-01T04:40:19;3.20;99.90
10678;DHT22;5387;48.722;9.110;2023-02-01T04:42:46;3.20;99.90
10678;DHT22;5387;48.722;9.110;2023-02-01T04:45:14;3.20;99.90
10678;DHT22;5387;48.722;9.110;2023-02-01T04:47:41;3.20;99.90
10678;DHT22;5387;48.722;9.110;2023-02-01T04:50:09;3.20;99.90
10678;DHT22;5387;48.722;9.110;2023-02-01T04:52:36;3.20;99.90
10678;DHT22;5387;48.722;9.110;2023-02-01T04:55:04;3.30;99.90
10678;DHT22;5387;48.722;9.110;2023-02-01T04:57:31;3.30;99.90
10678;DHT22;5387;48.722;9.110;2023-02-01T04:59:57;3.40;99.90
10678;DHT22;5387;48.722;9.110;2023-02-01T05:02:25;3.40;99.90
10678;DHT22;5387;48.722;9.110;2023-02-01T05:04:52;3.50;99.90
10678;DHT22;5387;48.722;9.110;2023-02-01T05:07:21;3.40;99.90
10678;DHT22;5387;48.722;9.110;2023-02-01T05:09:47;3.30;99.90
10678;DHT22;5387;48.722;9.110;2023-02-01T05:12:14;3.40;99.90
10678;DHT22;5387;48.722;9.110;2023-02-01T05:14:59;3.40;99.90
10678;DHT22;5387;48.722;9.110;2023-02-01T05:17:27;3.30;99.90
10678;DHT22;5387;48.722;9.110;2023-02-01T05:19:53;3.30;99.90
10678;DHT22;5387;48.722;9.110;2023-02-01T05:22:20;3.40;99.90
10678;DHT22;5387;48.722;9.110;2023-02-01T05:24:47;3.40;99.90
10678;DHT22;5387;48.722;9.110;2023-02-01T05:27:14;3.50;99.90
10678;DHT22;5387;48.722;9.110;2023-02-01T05:29:41;3.40;99.90
10678;DHT22;5387;48.722;9.110;2023-02-01T05:32:09;3.30;99.90
10678;DHT22;5387;48.722;9.110;2023-02-01T05:34:38;3.40;99.90
10678;DHT22;5387;48.722;9.110;2023-02-01T05:37:04;3.40;99.90
10678;DHT22;5387;48.722;9.110;2023-02-01T05:39:31;3.60;99.90
10678;DHT22;5387;48.722;9.110;2023-02-01T05:41:58;3.40;99.90
10678;DHT22;5387;48.722;9.110;2023-02-01T05:44:25;3.40;99.90
10678;DHT22;5387;48.722;9.110;2023-02-01T05:46:51;3.40;99.90
10678;DHT22;5387;48.722;9.110;2023-02-01T05:49:18;3.40;99.90
10678;DHT22;5387;48.722;9.110;2023-02-01T05:51:46;3.30;99.90
10678;DHT22;5387;48.722;9.110;2023-02-01T05:54:13;3.30;99.90
10678;DHT22;5387;48.722;9.110;2023-02-01T05:56:40;3.30;99.90
10678;DHT22;5387;48.722;9.110;2023-02-01T05:59:07;3.30;99.90
10678;DHT22;5387;48.722;9.110;2023-02-01T06:01:34;3.20;99.90
10678;DHT22;5387;48.722;9.110;2023-02-01T06:04:00;3.40;99.90
10678;DHT22;5387;48.722;9.110;2023-02-01T06:06:27;3.10;99.90
10678;DHT22;5387;48.722;9.110;2023-02-01T06:08:55;3.00;99.90
10678;DHT22;5387;48.722;9.110;2023-02-01T06:11:22;2.90;99.90
10678;DHT22;5387;48.722;9.110;2023-02-01T06:13:49;2.90;99.90
10678;DHT22;5387;48.722;9.110;2023-02-01T06:16:16;2.80;99.90
10678;DHT22;5387;48.722;9.110;2023-02-01T06:18:42;2.80;99.90
10678;DHT22;5387;48.722;9.110;2023-02-01T06:21:09;2.60;99.90
10678;DHT22;5387;48.722;9.110;2023-02-01T06:23:36;2.80;99.90
10678;DHT22;5387;48.722;9.110;2023-02-01T06:26:06;2.80;99.90
10678;DHT22;5387;48.722;9.110;2023-02-01T06:28:33;2.80;99.90
10678;DHT22;5387;48.722;9.110;2023-02-01T06:31:03;2.80;99.90
10678;DHT22;5387;48.722;9.110;2023-02-01T06:33:31;2.80;99.90
10678;DHT22;5387;48.722;9.110;2023-02-01T06:35:59;2.80;99.90
10678;DHT22;5387;48.722;9.110;2023-02-01T06:38:26;2.80;99.90
10678;DHT22;5387;48.722;9.110;2023-02-01T06:40:54;2.90;99.90
10678;DHT22;5387;48.722;9.110;2023-02-01T06:43:23;3.00;99.90
10678;DHT22;5387;48.722;9.110;2023-02-01T06:45:50;3.00;99.90
10678;DHT22;5387;48.722;9.110;2023-02-01T06:48:17;3.10;99.90
10678;DHT22;5387;48.722;9.110;2023-02-01T06:50:44;3.10;99.90
10678;DHT22;5387;48.722;9.110;2023-02-01T06:53:11;3.20;99.90
10678;DHT22;5387;48.722;9.110;2023-02-01T06:55:38;3.20;99.90
10678;DHT22;5387;48.722;9.110;2023-02-01T06:58:04;3.20;99.90
10678;DHT22;5387;48.722;9.110;2023-02-01T07:00:32;3.20;99.90
10678;DHT22;5387;48.722;9.110;2023-02-01T07:02:59;3.20;99.90
10678;DHT22;5387;48.722;9.110;2023-02-01T07:05:27;3.30;99.90
10678;DHT22;5387;48.722;9.110;2023-02-01T07:07:54;3.30;99.90
10678;DHT22;5387;48.722;9.110;2023-02-01T07:10:21;3.30;99.90
10678;DHT22;5387;48.722;9.110;2023-02-01T07:12:47;3.30;99.90
10678;DHT22;5387;48.722;9.110;2023-02-01T07:15:14;3.50;99.90
10678;DHT22;5387;48.722;9.110;2023-02-01T07:17:42;3.40;99.90
10678;DHT22;5387;48.722;9.110;2023-02-01T07:20:10;3.40;99.90
10678;DHT22;5387;48.722;9.110;2023-02-01T07:22:37;3.40;99.90
10678;DHT22;5387;48.722;9.110;2023-02-01T07:25:05;3.60;99.90
10678;DHT22;5387;48.722;9.110;2023-02-01T07:27:33;3.50;99.90
10678;DHT22;5387;48.722;9.110;2023-02-01T07:30:00;3.60;99.90
10678;DHT22;5387;48.722;9.110;2023-02-01T07:32:27;3.60;99.90
10678;DHT22;5387;48.722;9.110;2023-02-01T07:34:56;3.60;99.90
10678;DHT22;5387;48.722;9.110;2023-02-01T07:37:23;3.50;99.90
10678;DHT22;5387;48.722;9.110;2023-02-01T07:39:50;3.60;99.90
10678;DHT22;5387;48.722;9.110;2023-02-01T07:42:17;3.60;99.90
10678;DHT22;5387;48.722;9.110;2023-02-01T07:44:44;3.60;99.90
10678;DHT22;5387;48.722;9.110;2023-02-01T07:47:10;3.70;99.90
10678;DHT22;5387;48.722;9.110;2023-02-01T07:49:37;3.70;99.90
10678;DHT22;5387;48.722;9.110;2023-02-01T07:52:05;3.70;99.90
10678;DHT22;5387;48.722;9.110;2023-02-01T07:54:32;3.80;99.90
10678;DHT22;5387;48.722;9.110;2023-02-01T07:56:59;3.80;99.90
10678;DHT22;5387;48.722;9.110;2023-02-01T07:59:26;3.70;99.90
10678;DHT22;5387;48.722;9.110;2023-02-01T08:01:52;3.30;99.90
10678;DHT22;5387;48.722;9.110;2023-02-01T08:04:18;3.50;99.90
10678;DHT22;5387;48.722;9.110;2023-02-01T08:06:45;3.60;99.90
10678;DHT22;5387;48.722;9.110;2023-02-01T08:09:13;3.60;99.90
10678;DHT22;5387;48.722;9.110;2023-02-01T08:11:40;3.80;99.90
10678;DHT22;5387;48.722;9.110;2023-02-01T08:14:07;3.90;99.90
10678;DHT22;5387;48.722;9.110;2023-02-01T08:16:34;3.70;99.90
10678;DHT22;5387;48.722;9.110;2023-02-01T08:19:02;3.70;99.90
10678;DHT22;5387;48.722;9.110;2023-02-01T08:21:29;3.70;99.90
10678;DHT22;5387;48.722;9.110;2023-02-01T08:24:03;3.80;99.90
10678;DHT22;5387;48.722;9.110;2023-02-01T08:26:32;3.90;99.90
10678;DHT22;5387;48.722;9.110;2023-02-01T08:29:01;3.80;99.90
10678;DHT22;5387;48.722;9.110;2023-02-01T08:31:30;3.80;99.90
10678;DHT22;5387;48.722;9.110;2023-02-01T08:33:58;3.80;99.90
10678;DHT22;5387;48.722;9.110;2023-02-01T08:36:27;4.00;99.90
10678;DHT22;5387;48.722;9.110;2023-02-01T08:38:54;3.90;99.90
10678;DHT22;5387;48.722;9.110;2023-02-01T08:41:22;4.00;99.90
10678;DHT22;5387;48.722;9.110;2023-02-01T08:43:51;4.10;99.90
10678;DHT22;5387;48.722;9.110;2023-02-01T08:46:19;4.30;99.90
10678;DHT22;5387;48.722;9.110;2023-02-01T08:48:47;4.40;99.90
10678;DHT22;5387;48.722;9.110;2023-02-01T08:51:16;4.60;99.90
10678;DHT22;5387;48.722;9.110;2023-02-01T08:53:43;4.60;99.90
10678;DHT22;5387;48.722;9.110;2023-02-01T08:56:12;4.60;99.90
10678;DHT22;5387;48.722;9.110;2023-02-01T08:58:39;4.70;99.90
10678;DHT22;5387;48.722;9.110;2023-02-01T09:01:10;4.70;99.90
10678;DHT22;5387;48.722;9.110;2023-02-01T09:03:39;4.80;99.90
10678;DHT22;5387;48.722;9.110;2023-02-01T09:06:08;4.90;99.90
10678;DHT22;5387;48.722;9.110;2023-02-01T09:08:35;4.90;99.90
10678;DHT22;5387;48.722;9.110;2023-02-01T09:11:05;4.90;99.90
10678;DHT22;5387;48.722;9.110;2023-02-01T09:13:32;4.80;99.90
10678;DHT22;5387;48.722;9.110;2023-02-01T09:16:01;4.60;99.90
10678;DHT22;5387;48.722;9.110;2023-02-01T09:18:29;4.80;99.90
10678;DHT22;5387;48.722;9.110;2023-02-01T09:20:55;4.70;99.90
10678;DHT22;5387;48.722;9.110;2023-02-01T09:23:22;4.90;99.90
10678;DHT22;5387;48.722;9.110;2023-02-01T09:25:49;4.70;99.90
10678;DHT22;5387;48.722;9.110;2023-02-01T09:28:17;4.70;99.90
10678;DHT22;5387;48.722;9.110;2023-02-01T09:30:43;5.00;99.90
10678;DHT22;5387;48.722;9.110;2023-02-01T09:33:10;5.00;99.90
10678;DHT22;5387;48.722;9.110;2023-02-01T09:35:38;4.80;99.90
10678;DHT22;5387;48.722;9.110;2023-02-01T09:38:05;5.00;99.90
10678;DHT22;5387;48.722;9.110;2023-02-01T09:40:34;5.00;99.90
10678;DHT22;5387;48.722;9.110;2023-02-01T09:43:11;5.10;99.90
10678;DHT22;5387;48.722;9.110;2023-02-01T09:45:47;5.20;99.90
10678;DHT22;5387;48.722;9.110;2023-02-01T09:48:19;5.10;99.90
10678;DHT22;5387;48.722;9.110;2023-02-01T09:50:52;5.50;99.90
10678;DHT22;5387;48.722;9.110;2023-02-01T09:53:25;5.30;99.90
10678;DHT22;5387;48.722;9.110;2023-02-01T09:55:55;5.40;99.90
10678;DHT22;5387;48.722;9.110;2023-02-01T09:58:30;5.70;99.90
10678;DHT22;5387;48.722;9.110;2023-02-01T10:01:02;5.90;99.90
10678;DHT22;5387;48.722;9.110;2023-02-01T10:03:31;5.90;99.90
10678;DHT22;5387;48.722;9.110;2023-02-01T10:06:10;6.00;99.90
10678;DHT22;5387;48.722;9.110;2023-02-01T10:09:00;6.10;99.90
10678;DHT22;5387;48.722;9.110;2023-02-01T10:11:40;6.20;99.90
10678;DHT22;5387;48.722;9.110;2023-02-01T10:14:28;6.00;99.90
10678;DHT22;5387;48.722;9.110;2023-02-01T10:17:06;5.90;99.90
10678;DHT22;5387;48.722;9.110;2023-02-01T10:19:41;5.90;99.90
10678;DHT22;5387;48.722;9.110;2023-02-01T10:22:25;5.90;99.90
10678;DHT22;5387;48.722;9.110;2023-02-01T10:24:59;5.70;99.90
10678;DHT22;5387;48.722;9.110;2023-02-01T10:27:34;5.40;99.90
10678;DHT22;5387;48.722;9.110;2023-02-01T10:30:13;5.40;99.90
10678;DHT22;5387;48.722;9.110;2023-02-01T10:32:41;5.40;99.90
10678;DHT22;5387;48.722;9.110;2023-02-01T10:35:13;5.50;99.90
10678;DHT22;5387;48.722;9.110;2023-02-01T10:37:43;5.50;99.90
10678;DHT22;5387;48.722;9.110;2023-02-01T10:40:16;5.70;99.90
10678;DHT22;5387;48.722;9.110;2023-02-01T10:42:44;5.70;99.90
10678;DHT22;5387;48.722;9.110;2023-02-01T10:45:13;5.70;99.90
10678;DHT22;5387;48.722;9.110;2023-02-01T10:47:41;5.60;99.90
10678;DHT22;5387;48.722;9.110;2023-02-01T10:50:16;5.60;99.90
10678;DHT22;5387;48.722;9.110;2023-02-01T10:52:48;5.60;99.90
10678;DHT22;5387;48.722;9.110;2023-02-01T10:55:37;5.60;99.90
10678;DHT22;5387;48.722;9.110;2023-02-01T10:58:06;5.60;99.90
10678;DHT22;5387;48.722;9.110;2023-02-01T11:00:43;5.60;99.90
10678;DHT22;5387;48.722;9.110;2023-02-01T11:03:21;5.70;99.90
10678;DHT22;5387;48.722;9.110;2023-02-01T11:05:48;5.70;99.90
10678;DHT22;5387;48.722;9.110;2023-02-01T11:08:18;5.70;99.90
10678;DHT22;5387;48.722;9.110;2023-02-01T11:10:45;5.90;99.90
10678;DHT22;5387;48.722;9.110;2023-02-01T11:13:14;5.80;99.90
10678;DHT22;5387;48.722;9.110;2023-02-01T11:15:43;6.00;99.90
10678;DHT22;5387;48.722;9.110;2023-02-01T11:18:16;5.90;99.90
10678;DHT22;5387;48.722;9.110;2023-02-01T11:20:45;5.80;99.90
10678;DHT22;5387;48.722;9.110;2023-02-01T11:23:17;5.70;99.90
10678;DHT22;5387;48.722;9.110;2023-02-01T11:25:51;5.80;99.90
10678;DHT22;5387;48.722;9.110;2023-02-01T11:28:21;5.90;99.90
10678;DHT22;5387;48.722;9.110;2023-02-01T11:30:48;5.70;99.90
10678;DHT22;5387;48.722;9.110;2023-02-01T11:33:19;5.60;99.90
10678;DHT22;5387;48.722;9.110;2023-02-01T11:35:47;5.90;99.90
10678;DHT22;5387;48.722;9.110;2023-02-01T11:38:21;5.70;99.90
10678;DHT22;5387;48.722;9.110;2023-02-01T11:40:49;5.70;99.90
10678;DHT22;5387;48.722;9.110;2023-02-01T11:43:23;5.80;99.90
10678;DHT22;5387;48.722;9.110;2023-02-01T11:45:55;5.90;99.90
10678;DHT22;5387;48.722;9.110;2023-02-01T11:48:24;5.70;99.90
10678;DHT22;5387;48.722;9.110;2023-02-01T11:51:04;5.80;99.90
10678;DHT22;5387;48.722;9.110;2023-02-01T11:53:55;5.90;99.90
10678;DHT22;5387;48.722;9.110;2023-02-01T11:56:29;6.00;99.90
10678;DHT22;5387;48.722;9.110;2023-02-01T11:59:11;6.00;99.90
10678;DHT22;5387;48.722;9.110;2023-02-01T12:02:01;6.00;99.90
10678;DHT22;5387;48.722;9.110;2023-02-01T12:04:57;5.90;99.90
10678;DHT22;5387;48.722;9.110;2023-02-01T12:07:31;5.80;99.90
10678;DHT22;5387;48.722;9.110;2023-02-01T12:10:11;5.80;99.90
10678;DHT22;5387;48.722;9.110;2023-02-01T12:12:50;5.90;99.90
10678;DHT22;5387;48.722;9.110;2023-02-01T12:15:35;5.80;99.90
10678;DHT22;5387;48.722;9.110;2023-02-01T12:18:38;6.00;99.90
10678;DHT22;5387;48.722;9.110;2023-02-01T12:21:26;6.00;99.90
10678;DHT22;5387;48.722;9.110;2023-02-01T12:26:50;5.70;99.90
10678;DHT22;5387;48.722;9.110;2023-02-01T12:29:56;5.60;99.90
10678;DHT22;5387;48.722;9.110;2023-02-01T12:32:42;5.50;99.90
10678;DHT22;5387;48.722;9.110;2023-02-01T12:35:23;5.50;99.90
10678;DHT22;5387;48.722;9.110;2023-02-01T12:38:04;5.40;99.90
10678;DHT22;5387;48.722;9.110;2023-02-01T12:40:45;5.40;99.90
10678;DHT22;5387;48.722;9.110;2023-02-01T12:43:19;5.40;99.90
10678;DHT22;5387;48.722;9.110;2023-02-01T12:45:53;5.40;99.90
10678;DHT22;5387;48.722;9.110;2023-02-01T12:48:31;5.50;99.90
10678;DHT22;5387;48.722;9.110;2023-02-01T12:51:02;5.50;99.90
10678;DHT22;5387;48.722;9.110;2023-02-01T12:53:38;5.20;99.90
10678;DHT22;5387;48.722;9.110;2023-02-01T12:56:12;5.30;99.90
10678;DHT22;5387;48.722;9.110;2023-02-01T12:58:44;5.30;99.90
10678;DHT22;5387;48.722;9.110;2023-02-01T13:01:17;5.30;99.90
10678;DHT22;5387;48.722;9.110;2023-02-01T13:03:53;5.20;99.90
10678;DHT22;5387;48.722;9.110;2023-02-01T13:06:24;5.30;99.90
10678;DHT22;5387;48.722;9.110;2023-02-01T13:08:56;5.20;99.90
10678;DHT22;5387;48.722;9.110;2023-02-01T13:11:28;5.20;99.90
10678;DHT22;5387;48.722;9.110;2023-02-01T13:14:01;5.30;99.90
10678;DHT22;5387;48.722;9.110;2023-02-01T13:16:31;5.30;99.90
10678;DHT22;5387;48.722;9.110;2023-02-01T13:19:05;5.20;99.90
10678;DHT22;5387;48.722;9.110;2023-02-01T13:21:40;5.30;99.90
10678;DHT22;5387;48.722;9.110;2023-02-01T13:24:26;5.40;99.90
10678;DHT22;5387;48.722;9.110;2023-02-01T13:26:54;5.30;99.90
10678;DHT22;5387;48.722;9.110;2023-02-01T13:29:23;5.30;99.90
10678;DHT22;5387;48.722;9.110;2023-02-01T13:32:03;5.30;99.90
10678;DHT22;5387;48.722;9.110;2023-02-01T13:34:57;5.40;99.90
10678;DHT22;5387;48.722;9.110;2023-02-01T13:37:39;5.40;99.90
10678;DHT22;5387;48.722;9.110;2023-02-01T13:40:31;5.40;99.90
10678;DHT22;5387;48.722;9.110;2023-02-01T13:43:04;5.30;99.90
10678;DHT22;5387;48.722;9.110;2023-02-01T13:45:36;5.40;99.90
10678;DHT22;5387;48.722;9.110;2023-02-01T13:48:06;5.40;99.90
10678;DHT22;5387;48.722;9.110;2023-02-01T13:50:35;5.40;99.90
10678;DHT22;5387;48.722;9.110;2023-02-01T13:53:11;5.30;99.90
10678;DHT22;5387;48.722;9.110;2023-02-01T13:55:41;5.40;99.90
10678;DHT22;5387;48.722;9.110;2023-02-01T13:58:17;5.30;99.90
10678;DHT22;5387;48.722;9.110;2023-02-01T14:00:46;5.40;99.90
10678;DHT22;5387;48.722;9.110;2023-02-01T14:03:19;5.40;99.90
10678;DHT22;5387;48.722;9.110;2023-02-01T14:06:15;5.50;99.90
10678;DHT22;5387;48.722;9.110;2023-02-01T14:09:10;5.50;99.90
10678;DHT22;5387;48.722;9.110;2023-02-01T14:11:40;5.50;99.90
10678;DHT22;5387;48.722;9.110;2023-02-01T14:23:15;5.30;99.90
10678;DHT22;5387;48.722;9.110;2023-02-01T14:25:43;5.40;99.90
10678;DHT22;5387;48.722;9.110;2023-02-01T14:28:12;5.40;99.90
10678;DHT22;5387;48.722;9.110;2023-02-01T14:30:42;5.50;99.90
10678;DHT22;5387;48.722;9.110;2023-02-01T14:33:18;5.60;99.90
10678;DHT22;5387;48.722;9.110;2023-02-01T14:36:00;5.40;99.90
10678;DHT22;5387;48.722;9.110;2023-02-01T14:38:32;5.50;99.90
10678;DHT22;5387;48.722;9.110;2023-02-01T14:41:25;5.40;99.90
10678;DHT22;5387;48.722;9.110;2023-02-01T14:44:22;5.40;99.90
10678;DHT22;5387;48.722;9.110;2023-02-01T14:47:27;5.40;99.90
10678;DHT22;5387;48.722;9.110;2023-02-01T14:49:58;5.20;99.90
10678;DHT22;5387;48.722;9.110;2023-02-01T14:52:30;5.20;99.90
10678;DHT22;5387;48.722;9.110;2023-02-01T14:55:05;5.20;99.90
10678;DHT22;5387;48.722;9.110;2023-02-01T14:57:35;5.10;99.90
10678;DHT22;5387;48.722;9.110;2023-02-01T15:00:14;5.20;99.90
10678;DHT22;5387;48.722;9.110;2023-02-01T15:02:43;5.20;99.90
10678;DHT22;5387;48.722;9.110;2023-02-01T15:05:27;5.30;99.90
10678;DHT22;5387;48.722;9.110;2023-02-01T15:07:58;5.20;99.90
10678;DHT22;5387;48.722;9.110;2023-02-01T15:10:31;5.20;99.90
10678;DHT22;5387;48.722;9.110;2023-02-01T15:13:00;5.30;99.90
10678;DHT22;5387;48.722;9.110;2023-02-01T15:15:27;5.20;99.90
10678;DHT22;5387;48.722;9.110;2023-02-01T15:17:59;5.20;99.90
10678;DHT22;5387;48.722;9.110;2023-02-01T15:20:27;5.20;99.90
10678;DHT22;5387;48.722;9.110;2023-02-01T15:22:56;5.00;99.90
10678;DHT22;5387;48.722;9.110;2023-02-01T15:25:25;5.10;99.90
10678;DHT22;5387;48.722;9.110;2023-02-01T15:27:54;5.10;99.90
10678;DHT22;5387;48.722;9.110;2023-02-01T15:30:23;5.10;99.90
10678;DHT22;5387;48.722;9.110;2023-02-01T15:32:52;4.90;99.90
10678;DHT22;5387;48.722;9.110;2023-02-01T15:35:40;4.90;99.90
10678;DHT22;5387;48.722;9.110;2023-02-01T15:38:31;4.80;99.90
10678;DHT22;5387;48.722;9.110;2023-02-01T15:41:01;4.90;99.90
10678;DHT22;5387;48.722;9.110;2023-02-01T15:43:31;5.00;99.90
10678;DHT22;5387;48.722;9.110;2023-02-01T15:46:00;5.10;99.90
10678;DHT22;5387;48.722;9.110;2023-02-01T15:48:37;5.10;99.90
10678;DHT22;5387;48.722;9.110;2023-02-01T15:51:05;5.10;99.90
10678;DHT22;5387;48.722;9.110;2023-02-01T15:53:32;5.10;99.90
10678;DHT22;5387;48.722;9.110;2023-02-01T15:56:01;5.00;99.90
10678;DHT22;5387;48.722;9.110;2023-02-01T15:58:31;5.10;99.90
10678;DHT22;5387;48.722;9.110;2023-02-01T16:01:00;5.10;99.90
10678;DHT22;5387;48.722;9.110;2023-02-01T16:03:35;5.00;99.90
10678;DHT22;5387;48.722;9.110;2023-02-01T16:06:04;5.20;99.90
10678;DHT22;5387;48.722;9.110;2023-02-01T16:08:31;5.10;99.90
10678;DHT22;5387;48.722;9.110;2023-02-01T16:11:12;5.10;99.90
10678;DHT22;5387;48.722;9.110;2023-02-01T16:13:42;5.00;99.90
10678;DHT22;5387;48.722;9.110;2023-02-01T16:16:09;5.20;99.90
10678;DHT22;5387;48.722;9.110;2023-02-01T16:18:39;4.90;99.90
10678;DHT22;5387;48.722;9.110;2023-02-01T16:21:06;5.00;99.90
10678;DHT22;5387;48.722;9.110;2023-02-01T16:23:34;5.00;99.90
10678;DHT22;5387;48.722;9.110;2023-02-01T16:26:00;5.00;99.90
10678;DHT22;5387;48.722;9.110;2023-02-01T16:28:27;5.00;99.90
10678;DHT22;5387;48.722;9.110;2023-02-01T16:30:55;5.10;99.90
10678;DHT22;5387;48.722;9.110;2023-02-01T16:33:23;5.00;99.90
10678;DHT22;5387;48.722;9.110;2023-02-01T16:35:50;4.80;99.90
10678;DHT22;5387;48.722;9.110;2023-02-01T16:38:19;4.90;99.90
10678;DHT22;5387;48.722;9.110;2023-02-01T16:40:48;5.00;99.90
10678;DHT22;5387;48.722;9.110;2023-02-01T16:43:18;5.00;99.90
10678;DHT22;5387;48.722;9.110;2023-02-01T16:45:46;5.00;99.90
10678;DHT22;5387;48.722;9.110;2023-02-01T16:48:19;5.00;99.90